createdAt,value
2019-03-25T00:00:45.772Z,96.47
2019-03-25T00:03:15.265Z,95.56
2019-03-25T00:05:44.840Z,94.94
2019-03-25T00:08:14.399Z,94.48
2019-03-25T00:10:43.971Z,93.89
2019-03-25T00:13:13.523Z,93.59
2019-03-25T00:15:43.103Z,93.94
2019-03-25T00:18:12.573Z,94.62
2019-03-25T00:20:42.082Z,94.12
2019-03-25T00:23:11.559Z,92.83
2019-03-25T00:25:41.167Z,92.52
2019-03-25T00:28:13.701Z,92.18
2019-03-25T00:30:42.792Z,91.50
2019-03-25T00:33:12.290Z,91.39
2019-03-25T00:35:41.852Z,92.23
2019-03-25T00:38:11.355Z,93.19
2019-03-25T00:40:40.842Z,92.74
2019-03-25T00:43:10.326Z,92.09
2019-03-25T00:45:39.829Z,91.05
2019-03-25T00:48:09.313Z,90.92
2019-03-25T00:50:38.842Z,91.20
2019-03-25T00:53:08.318Z,91.86
2019-03-25T00:55:37.804Z,91.93
2019-03-25T00:58:08.848Z,92.60
2019-03-25T01:00:38.649Z,93.83
2019-03-25T01:03:08.138Z,93.44
2019-03-25T01:05:37.677Z,93.60
2019-03-25T01:08:07.246Z,94.37
2019-03-25T01:10:36.795Z,94.01
2019-03-25T01:13:06.371Z,94.21
2019-03-25T01:15:35.950Z,94.42
2019-03-25T01:18:16.143Z,93.87
2019-03-25T01:20:36.772Z,92.90
2019-03-25T01:23:06.350Z,92.79
2019-03-25T01:25:35.916Z,93.37
2019-03-25T01:28:05.631Z,93.95
2019-03-25T01:30:35.174Z,93.07
2019-03-25T01:33:04.822Z,92.55
2019-03-25T01:35:34.344Z,91.44
2019-03-25T01:38:03.840Z,91.25
2019-03-25T01:40:33.419Z,91.42
2019-03-25T01:43:02.908Z,91.62
2019-03-25T01:45:32.408Z,91.10
2019-03-25T01:48:02.026Z,90.67
2019-03-25T01:50:31.578Z,90.41
2019-03-25T01:53:01.012Z,91.08
2019-03-25T01:55:30.515Z,91.21
2019-03-25T01:57:59.991Z,90.33
2019-03-25T02:00:29.618Z,90.70
2019-03-25T02:02:59.116Z,90.62
2019-03-25T02:05:28.632Z,91.44
2019-03-25T02:07:58.169Z,89.60
2019-03-25T02:10:27.688Z,89.32
2019-03-25T02:12:57.150Z,88.99
2019-03-25T02:15:26.635Z,89.25
2019-03-25T02:17:56.131Z,87.36
2019-03-25T02:20:26.882Z,86.81
2019-03-25T02:22:56.800Z,84.89
2019-03-25T02:25:26.423Z,85.20
2019-03-25T02:27:55.939Z,83.44
2019-03-25T02:30:25.521Z,84.44
2019-03-25T02:32:55.080Z,84.85
2019-03-25T02:35:24.571Z,83.75
2019-03-25T02:37:54.070Z,83.05
2019-03-25T02:40:23.542Z,84.83
2019-03-25T02:42:53.014Z,83.24
2019-03-25T02:45:22.661Z,83.49
2019-03-25T02:47:52.148Z,82.63
2019-03-25T02:50:21.689Z,84.08
2019-03-25T02:52:51.193Z,83.08
2019-03-25T02:55:20.665Z,82.88
2019-03-25T02:57:50.174Z,83.46
2019-03-25T03:00:35.221Z,83.50
2019-03-25T03:03:06.365Z,84.20
2019-03-25T03:05:36.769Z,83.08
2019-03-25T03:08:06.643Z,83.74
2019-03-25T03:10:36.356Z,84.66
2019-03-25T03:13:05.921Z,84.80
2019-03-25T03:15:35.473Z,83.66
2019-03-25T03:18:05.365Z,85.03
2019-03-25T03:20:34.866Z,83.92
2019-03-25T03:23:04.477Z,84.29
2019-03-25T03:25:34.019Z,84.65
2019-03-25T03:28:03.666Z,84.65
2019-03-25T03:30:33.225Z,84.09
2019-03-25T03:33:02.710Z,84.25
2019-03-25T03:35:32.205Z,84.89
2019-03-25T03:38:01.739Z,85.83
2019-03-25T03:40:31.235Z,85.36
2019-03-25T03:43:00.741Z,85.79
2019-03-25T03:45:30.247Z,85.65
2019-03-25T03:47:59.715Z,85.24
2019-03-25T03:50:29.694Z,85.33
2019-03-25T03:52:59.381Z,85.87
2019-03-25T03:55:29.913Z,86.49
2019-03-25T03:58:00.018Z,87.37
2019-03-25T04:00:34.717Z,86.58
2019-03-25T04:03:04.336Z,86.93
2019-03-25T04:05:33.983Z,88.26
2019-03-25T04:08:03.651Z,88.73
2019-03-25T04:10:33.145Z,89.69
2019-03-25T04:13:02.695Z,89.79
2019-03-25T04:15:33.413Z,89.49
2019-03-25T04:18:03.134Z,89.21
2019-03-25T04:20:32.950Z,89.19
2019-03-25T04:23:02.493Z,88.58
2019-03-25T04:25:32.002Z,88.55
2019-03-25T04:28:01.489Z,88.16
2019-03-25T04:30:31.068Z,88.63
2019-03-25T04:33:00.665Z,88.44
2019-03-25T04:35:30.153Z,89.11
2019-03-25T04:37:59.735Z,89.13
2019-03-25T04:40:29.283Z,88.76
2019-03-25T04:42:58.772Z,88.79
2019-03-25T04:45:28.277Z,88.99
2019-03-25T04:47:57.837Z,88.75
2019-03-25T04:50:27.328Z,88.47
2019-03-25T04:52:56.811Z,88.78
2019-03-25T04:55:26.364Z,88.77
2019-03-25T04:57:55.861Z,89.38
2019-03-25T05:00:36.438Z,89.36
2019-03-25T05:03:06.217Z,89.41
2019-03-25T05:05:36.289Z,93.60
2019-03-25T05:08:06.095Z,95.53
2019-03-25T05:10:35.595Z,97.46
2019-03-25T05:13:05.138Z,100.00
2019-03-25T05:15:34.644Z,100.00
2019-03-25T05:18:04.133Z,100.00
2019-03-25T05:20:33.654Z,100.00
2019-03-25T05:23:03.122Z,100.00
2019-03-25T05:25:32.674Z,100.00
2019-03-25T05:28:02.176Z,100.00
2019-03-25T05:30:31.659Z,100.00
2019-03-25T05:33:01.178Z,100.00
2019-03-25T05:35:30.666Z,100.00
2019-03-25T05:38:00.140Z,100.00
2019-03-25T05:40:32.626Z,100.00
2019-03-25T05:43:02.179Z,100.00
2019-03-25T05:45:31.684Z,100.00
2019-03-25T05:48:01.194Z,100.00
2019-03-25T05:50:30.679Z,100.00
2019-03-25T05:53:00.191Z,100.00
2019-03-25T05:55:32.725Z,100.00
2019-03-25T05:58:02.294Z,100.00
2019-03-25T06:00:33.432Z,100.00
2019-03-25T06:03:02.952Z,100.00
2019-03-25T06:05:32.422Z,100.00
2019-03-25T06:08:01.921Z,100.00
2019-03-25T06:10:31.429Z,100.00
2019-03-25T06:13:01.008Z,100.00
2019-03-25T06:15:30.474Z,100.00
2019-03-25T06:18:00.043Z,100.00
2019-03-25T06:20:29.566Z,100.00
2019-03-25T06:22:59.069Z,100.00
2019-03-25T06:25:28.554Z,100.00
2019-03-25T06:27:58.050Z,100.00
2019-03-25T06:30:27.549Z,100.00
2019-03-25T06:32:57.091Z,100.00
2019-03-25T06:35:26.668Z,100.00
2019-03-25T06:37:56.145Z,100.00
2019-03-25T06:40:25.621Z,100.00
2019-03-25T06:42:55.150Z,100.00
2019-03-25T06:45:24.703Z,100.00
2019-03-25T06:47:54.282Z,100.00
2019-03-25T06:50:23.833Z,100.00
2019-03-25T06:52:53.395Z,100.00
2019-03-25T06:55:23.120Z,100.00
2019-03-25T06:57:52.702Z,100.00
2019-03-25T07:00:22.591Z,100.00
2019-03-25T07:02:52.169Z,99.87
2019-03-25T07:05:21.742Z,100.00
2019-03-25T07:07:51.250Z,99.56
2019-03-25T07:10:58.337Z,100.00
2019-03-25T07:13:28.976Z,100.00
2019-03-25T07:15:58.492Z,95.80
2019-03-25T07:18:27.962Z,94.37
2019-03-25T07:20:57.555Z,90.39
2019-03-25T07:23:27.045Z,88.38
2019-03-25T07:25:56.570Z,85.74
2019-03-25T07:28:26.059Z,83.41
2019-03-25T07:30:55.539Z,86.47
2019-03-25T07:33:25.084Z,86.61
2019-03-25T07:35:54.571Z,85.39
2019-03-25T07:38:24.047Z,82.85
2019-03-25T07:40:53.702Z,85.67
2019-03-25T07:43:23.191Z,85.89
2019-03-25T07:45:52.715Z,86.33
2019-03-25T07:48:22.265Z,86.88
2019-03-25T07:50:51.761Z,89.88
2019-03-25T07:53:21.451Z,92.37
2019-03-25T07:55:50.947Z,89.17
2019-03-25T07:58:20.457Z,88.08
2019-03-25T08:00:50.049Z,88.03
2019-03-25T08:03:19.531Z,88.59
2019-03-25T08:05:49.026Z,87.56
2019-03-25T08:08:18.580Z,87.28
2019-03-25T08:10:48.133Z,86.23
2019-03-25T08:13:17.670Z,87.68
2019-03-25T08:15:47.338Z,88.12
2019-03-25T08:18:16.902Z,88.46
2019-03-25T08:20:46.438Z,88.70
2019-03-25T08:23:15.960Z,89.00
2019-03-25T08:25:45.447Z,89.13
2019-03-25T08:28:14.940Z,89.81
2019-03-25T08:30:44.497Z,80.46
2019-03-25T08:33:14.004Z,72.30
2019-03-25T08:35:43.673Z,68.36
2019-03-25T08:38:13.192Z,65.79
2019-03-25T08:40:42.692Z,66.45
2019-03-25T08:43:12.249Z,65.27
2019-03-25T08:45:41.827Z,67.04
2019-03-25T08:48:11.356Z,68.91
2019-03-25T08:50:41.056Z,71.06
2019-03-25T08:53:10.693Z,72.57
2019-03-25T08:55:40.190Z,76.15
2019-03-25T08:58:12.383Z,73.71
2019-03-25T09:00:41.122Z,75.40
2019-03-25T09:03:10.855Z,76.71
2019-03-25T09:05:40.440Z,77.92
2019-03-25T09:08:10.097Z,75.73
2019-03-25T09:10:39.662Z,75.42
2019-03-25T09:13:09.219Z,77.11
2019-03-25T09:15:38.771Z,77.67
2019-03-25T09:18:08.285Z,79.44
2019-03-25T09:20:37.871Z,78.57
2019-03-25T09:23:07.444Z,79.61
2019-03-25T09:25:36.998Z,80.14
2019-03-25T09:28:06.579Z,78.61
2019-03-25T09:30:58.822Z,75.00
2019-03-25T09:33:28.339Z,71.19
2019-03-25T09:35:58.043Z,68.55
2019-03-25T09:38:27.627Z,66.39
2019-03-25T09:40:57.207Z,68.05
2019-03-25T09:43:26.711Z,66.73
2019-03-25T09:45:56.223Z,62.71
2019-03-25T09:48:25.747Z,61.93
2019-03-25T09:50:55.327Z,62.46
2019-03-25T09:53:24.793Z,59.62
2019-03-25T09:55:56.228Z,60.80
2019-03-25T09:58:35.606Z,63.93
2019-03-25T10:00:57.114Z,66.33
2019-03-25T10:03:26.619Z,63.60
2019-03-25T10:05:56.565Z,60.58
2019-03-25T10:08:26.142Z,58.68
2019-03-25T10:10:55.635Z,58.18
2019-03-25T10:13:25.332Z,61.21
2019-03-25T10:15:54.806Z,63.66
2019-03-25T10:18:24.299Z,63.85
2019-03-25T10:20:53.950Z,64.23
2019-03-25T10:23:23.528Z,62.31
2019-03-25T10:25:53.074Z,58.55
2019-03-25T10:28:22.712Z,56.06
2019-03-25T10:30:52.350Z,58.09
2019-03-25T10:33:21.857Z,58.25
2019-03-25T10:35:51.487Z,61.70
2019-03-25T10:38:21.073Z,62.64
2019-03-25T10:40:50.734Z,62.98
2019-03-25T10:43:20.293Z,66.02
2019-03-25T10:45:49.867Z,68.46
2019-03-25T10:48:19.393Z,73.62
2019-03-25T10:50:49.125Z,76.60
2019-03-25T10:53:18.643Z,79.78
2019-03-25T10:55:48.232Z,80.24
2019-03-25T10:58:17.869Z,80.48
2019-03-25T11:00:47.449Z,91.01
2019-03-25T11:03:17.018Z,91.35
2019-03-25T11:05:46.576Z,91.04
2019-03-25T11:08:16.085Z,85.36
2019-03-25T11:10:45.595Z,79.13
2019-03-25T11:13:15.074Z,77.87
2019-03-25T11:15:44.678Z,73.13
2019-03-25T11:18:14.234Z,72.68
2019-03-25T11:20:43.707Z,67.10
2019-03-25T11:23:13.235Z,68.23
2019-03-25T11:25:42.811Z,65.58
2019-03-25T11:28:12.465Z,66.62
2019-03-25T11:30:57.180Z,64.32
2019-03-25T11:33:28.116Z,62.61
2019-03-25T11:35:57.910Z,60.88
2019-03-25T11:38:27.529Z,62.27
2019-03-25T11:40:57.259Z,61.13
2019-03-25T11:43:26.925Z,60.96
2019-03-25T11:45:56.590Z,60.20
2019-03-25T11:48:26.083Z,62.34
2019-03-25T11:50:55.564Z,64.59
2019-03-25T11:53:25.067Z,64.61
2019-03-25T11:55:54.693Z,67.34
2019-03-25T11:58:24.186Z,70.68
2019-03-25T12:00:54.563Z,74.44
2019-03-25T12:03:24.048Z,79.99
2019-03-25T12:05:53.696Z,88.83
2019-03-25T12:08:23.259Z,95.82
2019-03-25T12:10:52.815Z,94.38
2019-03-25T12:13:22.438Z,96.16
2019-03-25T12:15:51.996Z,99.24
2019-03-25T12:18:21.601Z,85.06
2019-03-25T12:20:51.077Z,81.16
2019-03-25T12:23:26.248Z,80.97
2019-03-25T12:25:51.887Z,72.97
2019-03-25T12:28:21.466Z,70.68
2019-03-25T12:30:52.360Z,71.68
2019-03-25T12:33:21.986Z,69.74
2019-03-25T12:35:51.483Z,67.66
2019-03-25T12:38:21.162Z,65.86
2019-03-25T12:40:50.747Z,64.27
2019-03-25T12:43:20.273Z,64.04
2019-03-25T12:45:49.913Z,62.12
2019-03-25T12:48:19.402Z,59.97
2019-03-25T12:50:48.939Z,63.29
2019-03-25T12:53:18.487Z,64.72
2019-03-25T12:55:48.059Z,64.68
2019-03-25T12:58:17.582Z,62.81
2019-03-25T13:00:47.262Z,64.35
2019-03-25T13:03:16.834Z,84.03
2019-03-25T13:05:46.393Z,93.37
2019-03-25T13:08:15.899Z,96.46
2019-03-25T13:10:45.392Z,99.78
2019-03-25T13:13:14.900Z,97.23
2019-03-25T13:15:44.458Z,93.33
2019-03-25T13:18:14.017Z,92.84
2019-03-25T13:20:43.519Z,90.10
2019-03-25T13:23:13.077Z,90.31
2019-03-25T13:25:42.610Z,87.60
2019-03-25T13:28:12.105Z,83.45
2019-03-25T13:30:41.598Z,79.25
2019-03-25T13:33:11.167Z,79.20
2019-03-25T13:35:40.686Z,82.30
2019-03-25T13:38:10.175Z,76.95
2019-03-25T13:40:39.663Z,76.19
2019-03-25T13:43:09.166Z,75.87
2019-03-25T13:45:38.650Z,73.53
2019-03-25T13:48:08.296Z,75.26
2019-03-25T13:50:37.793Z,70.87
2019-03-25T13:53:07.304Z,71.64
2019-03-25T13:55:36.781Z,72.52
2019-03-25T13:58:06.259Z,72.14
2019-03-25T14:00:40.367Z,71.46
2019-03-25T14:03:10.009Z,71.71
2019-03-25T14:05:39.585Z,73.13
2019-03-25T14:08:09.146Z,73.27
2019-03-25T14:10:38.814Z,75.60
2019-03-25T14:13:08.589Z,77.38
2019-03-25T14:15:38.178Z,79.73
2019-03-25T14:18:07.982Z,83.79
2019-03-25T14:20:37.545Z,87.54
2019-03-25T14:23:07.314Z,90.28
2019-03-25T14:25:36.778Z,95.77
2019-03-25T14:28:06.348Z,95.31
2019-03-25T14:30:35.893Z,97.22
2019-03-25T14:33:05.556Z,100.00
2019-03-25T14:35:35.094Z,99.69
2019-03-25T14:38:04.556Z,98.08
2019-03-25T14:40:34.146Z,99.94
2019-03-25T14:43:03.780Z,100.00
2019-03-25T14:45:33.289Z,98.10
2019-03-25T14:48:02.975Z,97.95
2019-03-25T14:50:32.484Z,95.20
2019-03-25T14:53:02.034Z,98.95
2019-03-25T14:55:31.520Z,97.19
2019-03-25T14:58:01.041Z,100.00
2019-03-25T15:00:30.534Z,100.00
2019-03-25T15:03:00.052Z,100.00
2019-03-25T15:05:29.632Z,100.00
2019-03-25T15:07:59.274Z,100.00
2019-03-25T15:10:28.795Z,100.00
2019-03-25T15:12:58.435Z,100.00
2019-03-25T15:15:28.055Z,100.00
2019-03-25T15:17:57.657Z,100.00
2019-03-25T15:20:27.136Z,100.00
2019-03-25T15:22:56.713Z,98.40
2019-03-25T15:25:26.291Z,96.50
2019-03-25T15:27:55.867Z,93.67
2019-03-25T15:30:35.596Z,97.25
2019-03-25T15:32:56.810Z,94.61
2019-03-25T15:35:26.297Z,90.61
2019-03-25T15:37:55.812Z,87.77
2019-03-25T15:40:26.495Z,85.28
2019-03-25T15:42:56.095Z,86.32
2019-03-25T15:45:25.546Z,88.86
2019-03-25T15:47:55.105Z,89.14
2019-03-25T15:50:24.703Z,84.32
2019-03-25T15:52:54.287Z,84.33
2019-03-25T15:55:24.301Z,84.39
2019-03-25T15:57:53.781Z,84.24
2019-03-25T16:00:23.736Z,81.82
2019-03-25T16:02:53.235Z,83.53
2019-03-25T16:05:22.816Z,81.96
2019-03-25T16:07:52.484Z,83.58
2019-03-25T16:10:23.549Z,80.52
2019-03-25T16:12:53.072Z,77.45
2019-03-25T16:15:40.568Z,76.04
2019-03-25T16:18:10.753Z,78.09
2019-03-25T16:20:40.334Z,80.93
2019-03-25T16:23:10.014Z,82.08
2019-03-25T16:25:39.532Z,83.48
2019-03-25T16:28:09.023Z,84.22
2019-03-25T16:30:38.591Z,84.75
2019-03-25T16:33:09.155Z,86.22
2019-03-25T16:35:38.819Z,88.09
2019-03-25T16:38:08.328Z,89.30
2019-03-25T16:40:37.815Z,89.55
2019-03-25T16:43:07.405Z,91.41
2019-03-25T16:45:36.919Z,90.63
2019-03-25T16:48:06.463Z,90.46
2019-03-25T16:50:35.970Z,88.74
2019-03-25T16:53:05.612Z,90.91
2019-03-25T16:55:35.129Z,90.50
2019-03-25T16:58:04.699Z,91.14
2019-03-25T17:00:34.244Z,90.19
2019-03-25T17:03:03.840Z,89.03
2019-03-25T17:05:34.253Z,88.83
2019-03-25T17:08:03.809Z,88.66
2019-03-25T17:10:33.307Z,88.33
2019-03-25T17:13:02.825Z,86.72
2019-03-25T17:15:33.489Z,86.33
2019-03-25T17:18:03.063Z,86.17
2019-03-25T17:20:32.637Z,85.78
2019-03-25T17:23:02.198Z,84.88
2019-03-25T17:25:31.744Z,86.17
2019-03-25T17:28:01.224Z,85.70
2019-03-25T17:30:30.834Z,85.31
2019-03-25T17:33:00.353Z,84.24
2019-03-25T17:35:29.837Z,85.23
2019-03-25T17:37:59.509Z,84.28
2019-03-25T17:40:29.068Z,83.64
2019-03-25T17:42:58.648Z,82.97
2019-03-25T17:45:28.195Z,82.86
2019-03-25T17:47:57.740Z,83.31
2019-03-25T17:50:27.251Z,82.59
2019-03-25T17:52:56.765Z,82.22
2019-03-25T17:55:26.418Z,82.80
2019-03-25T17:57:55.957Z,83.11
2019-03-25T18:00:49.966Z,82.88
2019-03-25T18:03:19.544Z,83.48
2019-03-25T18:05:49.060Z,82.63
2019-03-25T18:08:18.640Z,79.76
2019-03-25T18:10:48.282Z,80.00
2019-03-25T18:13:22.247Z,80.61
2019-03-25T18:15:49.101Z,79.18
2019-03-25T18:18:18.613Z,79.31
2019-03-25T18:20:48.165Z,77.04
2019-03-25T18:23:17.696Z,78.91
2019-03-25T18:25:47.178Z,77.75
2019-03-25T18:28:16.678Z,77.78
2019-03-25T18:30:46.213Z,77.32
2019-03-25T18:33:15.722Z,78.69
2019-03-25T18:35:45.273Z,76.94
2019-03-25T18:38:14.872Z,77.88
2019-03-25T18:40:44.441Z,79.50
2019-03-25T18:43:14.000Z,77.52
2019-03-25T18:45:43.668Z,77.62
2019-03-25T18:48:13.221Z,78.94
2019-03-25T18:50:42.727Z,78.92
2019-03-25T18:53:12.247Z,79.97
2019-03-25T18:55:41.826Z,79.46
2019-03-25T18:58:11.398Z,80.03
2019-03-25T19:00:40.868Z,80.21
2019-03-25T19:03:10.392Z,80.88
2019-03-25T19:05:39.939Z,79.95
2019-03-25T19:08:10.308Z,80.11
2019-03-25T19:10:39.776Z,80.05
2019-03-25T19:13:09.332Z,79.71
2019-03-25T19:15:38.835Z,79.86
2019-03-25T19:18:08.385Z,79.92
2019-03-25T19:20:37.897Z,80.93
2019-03-25T19:23:07.375Z,82.05
2019-03-25T19:25:36.953Z,81.52
2019-03-25T19:28:06.564Z,82.02
2019-03-25T19:30:36.136Z,80.82
2019-03-25T19:33:05.740Z,80.01
2019-03-25T19:35:35.305Z,82.25
2019-03-25T19:38:04.817Z,81.52
2019-03-25T19:40:34.387Z,80.28
2019-03-25T19:43:03.934Z,79.52
2019-03-25T19:45:33.590Z,80.28
2019-03-25T19:48:03.173Z,81.97
2019-03-25T19:50:32.761Z,80.36
2019-03-25T19:53:02.356Z,81.06
2019-03-25T19:55:31.897Z,81.58
2019-03-25T19:58:01.356Z,81.37
2019-03-25T20:00:37.411Z,82.03
2019-03-25T20:03:07.410Z,82.24
2019-03-25T20:05:37.054Z,81.98
2019-03-25T20:08:06.908Z,83.77
2019-03-25T20:10:38.116Z,83.15
2019-03-25T20:13:08.298Z,82.35
2019-03-25T20:15:57.266Z,81.63
2019-03-25T20:18:26.789Z,81.49
2019-03-25T20:20:56.322Z,81.61
2019-03-25T20:23:25.926Z,83.26
2019-03-25T20:25:55.547Z,82.00
2019-03-25T20:28:25.067Z,82.09
2019-03-25T20:30:54.730Z,82.05
2019-03-25T20:33:24.398Z,82.58
2019-03-25T20:35:53.962Z,82.07
2019-03-25T20:38:23.520Z,82.39
2019-03-25T20:40:53.198Z,83.44
2019-03-25T20:43:22.892Z,82.82
2019-03-25T20:45:52.390Z,83.19
2019-03-25T20:48:21.990Z,83.32
2019-03-25T20:50:51.620Z,83.71
2019-03-25T20:53:21.219Z,83.86
2019-03-25T20:55:50.743Z,84.90
2019-03-25T20:58:20.377Z,85.21
2019-03-25T21:00:52.555Z,85.49
2019-03-25T21:03:22.394Z,84.67
2019-03-25T21:05:52.081Z,84.34
2019-03-25T21:08:21.528Z,84.25
2019-03-25T21:10:51.142Z,84.70
2019-03-25T21:13:20.653Z,85.05
2019-03-25T21:15:50.376Z,85.22
2019-03-25T21:18:19.866Z,84.35
2019-03-25T21:20:49.399Z,84.73
2019-03-25T21:23:19.052Z,85.40
2019-03-25T21:25:48.653Z,85.32
2019-03-25T21:28:18.138Z,86.82
2019-03-25T21:30:48.556Z,87.34
2019-03-25T21:33:18.340Z,88.22
2019-03-25T21:35:47.911Z,88.12
2019-03-25T21:38:17.433Z,88.44
2019-03-25T21:40:47.147Z,87.93
2019-03-25T21:43:16.682Z,88.22
2019-03-25T21:45:46.299Z,87.63
2019-03-25T21:48:15.897Z,87.95
2019-03-25T21:50:45.455Z,88.02
2019-03-25T21:53:15.082Z,87.61
2019-03-25T21:55:44.841Z,87.00
2019-03-25T21:58:14.452Z,87.28
2019-03-25T22:00:44.009Z,87.51
2019-03-25T22:03:13.541Z,87.03
2019-03-25T22:05:44.562Z,87.26
2019-03-25T22:08:14.037Z,86.88
2019-03-25T22:10:43.579Z,88.21
2019-03-25T22:13:13.078Z,87.37
2019-03-25T22:15:43.508Z,88.18
2019-03-25T22:18:13.270Z,88.66
2019-03-25T22:20:42.819Z,88.44
2019-03-25T22:23:12.326Z,88.61
2019-03-25T22:25:41.814Z,88.89
2019-03-25T22:28:11.422Z,88.39
2019-03-25T22:30:40.968Z,89.18
2019-03-25T22:33:10.559Z,89.39
2019-03-25T22:35:40.047Z,89.10
2019-03-25T22:38:09.984Z,89.28
2019-03-25T22:40:39.513Z,89.12
2019-03-25T22:43:09.064Z,89.40
2019-03-25T22:45:38.572Z,89.56
2019-03-25T22:48:08.092Z,90.26
2019-03-25T22:50:37.685Z,89.65
2019-03-25T22:53:07.241Z,90.68
2019-03-25T22:55:36.728Z,90.56
2019-03-25T22:58:06.398Z,90.16
2019-03-25T23:00:40.597Z,90.15
2019-03-25T23:03:10.229Z,90.32
2019-03-25T23:05:39.735Z,90.61
2019-03-25T23:08:09.290Z,91.11
2019-03-25T23:10:38.890Z,91.09
2019-03-25T23:13:08.388Z,92.41
2019-03-25T23:15:37.877Z,92.09
2019-03-25T23:18:07.448Z,90.57
2019-03-25T23:20:36.998Z,91.34
2019-03-25T23:23:06.517Z,93.23
2019-03-25T23:25:36.065Z,91.85
2019-03-25T23:28:05.726Z,91.68
2019-03-25T23:30:35.294Z,90.52
2019-03-25T23:33:05.054Z,91.66
2019-03-25T23:35:34.615Z,90.97
2019-03-25T23:38:04.172Z,92.50
2019-03-25T23:40:33.694Z,92.91
2019-03-25T23:43:04.816Z,92.08
2019-03-25T23:45:34.375Z,91.58
2019-03-25T23:48:03.885Z,92.75
2019-03-25T23:50:33.482Z,92.89
2019-03-25T23:53:02.953Z,91.90
2019-03-25T23:55:32.454Z,92.00
2019-03-25T23:58:01.936Z,91.81
